createdAt,value
2022-08-04T00:06:48.611Z,94.72
2022-08-04T00:14:03.621Z,99.22
2022-08-04T00:21:06.168Z,101.13
2022-08-04T00:28:07.783Z,88.68
2022-08-04T00:35:09.979Z,89.78
2022-08-04T00:42:24.493Z,92.75
2022-08-04T00:49:31.859Z,98.32
2022-08-04T00:56:45.993Z,86.63
2022-08-04T01:03:51.551Z,86.05
2022-08-04T01:11:05.474Z,95.97
2022-08-04T01:18:08.288Z,95.90
2022-08-04T01:25:25.122Z,92.93
2022-08-04T01:32:32.363Z,88.93
2022-08-04T01:39:42.584Z,95.75
2022-08-04T01:46:46.461Z,92.75
2022-08-04T01:53:48.154Z,84.15
2022-08-04T02:01:09.397Z,106.03
2022-08-04T02:08:30.973Z,84.65
2022-08-04T02:16:04.326Z,86.30
2022-08-04T02:23:10.993Z,91.30
2022-08-04T02:30:12.658Z,85.53
2022-08-04T02:37:17.035Z,88.60
2022-08-04T02:44:22.571Z,89.28
2022-08-04T02:51:43.793Z,90.50
2022-08-04T02:58:46.733Z,89.30
2022-08-04T03:06:10.459Z,89.68
2022-08-04T03:13:30.688Z,95.80
2022-08-04T03:21:00.406Z,92.85
2022-08-04T03:28:01.886Z,94.50
2022-08-04T03:35:28.294Z,91.15
2022-08-04T03:42:45.315Z,92.38
2022-08-04T03:50:08.679Z,92.65
2022-08-04T03:57:27.104Z,92.68
2022-08-04T04:04:53.111Z,97.00
2022-08-04T04:12:12.333Z,102.85
2022-08-04T04:20:01.214Z,91.75
2022-08-04T04:27:17.779Z,95.57
2022-08-04T04:34:35.985Z,89.13
2022-08-04T04:41:48.148Z,94.32
2022-08-04T04:48:53.191Z,94.03
2022-08-04T04:56:02.029Z,89.57
2022-08-04T05:03:15.634Z,94.22
2022-08-04T05:10:27.991Z,92.15
2022-08-04T05:17:40.278Z,95.15
2022-08-04T05:24:43.205Z,93.13
2022-08-04T05:31:51.265Z,91.00
2022-08-04T05:38:54.283Z,94.53
2022-08-04T05:45:57.718Z,88.32
2022-08-04T05:53:01.354Z,90.20
2022-08-04T06:00:25.147Z,86.90
2022-08-04T06:07:27.487Z,96.10
2022-08-04T06:14:31.148Z,85.97
2022-08-04T06:21:32.758Z,86.93
2022-08-04T06:28:35.277Z,82.72
2022-08-04T06:35:37.057Z,82.07
2022-08-04T06:42:38.660Z,80.93
2022-08-04T06:49:54.997Z,95.70
2022-08-04T06:57:01.871Z,77.60
2022-08-04T07:04:04.221Z,73.78
2022-08-04T07:11:05.916Z,68.00
2022-08-04T07:18:07.606Z,66.13
2022-08-04T07:25:12.743Z,63.17
2022-08-04T07:32:14.788Z,73.28
2022-08-04T07:39:16.449Z,60.88
2022-08-04T07:46:31.208Z,71.07
2022-08-04T07:53:54.009Z,43.38
2022-08-04T08:00:54.967Z,40.38
2022-08-04T08:07:58.232Z,10.88
2022-08-04T08:14:59.846Z,10.85
2022-08-04T08:22:02.066Z,9.25
2022-08-04T08:29:04.187Z,13.30
2022-08-04T08:36:36.631Z,8.25
2022-08-04T08:44:19.180Z,9.38
2022-08-04T08:51:47.440Z,7.80
2022-08-04T08:58:58.539Z,6.97
2022-08-04T09:06:18.682Z,8.45
2022-08-04T09:13:26.682Z,5.82
2022-08-04T09:20:32.086Z,7.05
2022-08-04T09:27:55.722Z,7.05
2022-08-04T09:35:14.964Z,7.68
2022-08-04T09:42:40.188Z,6.75
2022-08-04T09:50:04.769Z,6.95
2022-08-04T09:57:31.311Z,7.07
2022-08-04T10:04:32.974Z,7.40
2022-08-04T10:11:55.964Z,7.28
2022-08-04T10:19:29.939Z,7.07
2022-08-04T10:26:45.882Z,6.93
2022-08-04T10:33:53.132Z,6.80
2022-08-04T10:41:27.762Z,6.55
2022-08-04T10:48:51.481Z,6.18
2022-08-04T10:56:06.755Z,6.80
2022-08-04T11:03:20.726Z,7.45
2022-08-04T11:10:23.062Z,7.32
2022-08-04T11:17:57.439Z,6.78
2022-08-04T11:25:14.340Z,6.90
2022-08-04T11:32:21.253Z,7.03
2022-08-04T11:39:35.359Z,7.80
2022-08-04T11:46:43.734Z,7.60
2022-08-04T11:53:45.339Z,6.97
2022-08-04T12:01:20.029Z,7.30
2022-08-04T12:08:33.456Z,6.85
2022-08-04T12:15:45.915Z,6.95
2022-08-04T12:22:50.188Z,7.28
2022-08-04T12:29:54.318Z,7.40
2022-08-04T12:37:50.784Z,6.82
2022-08-04T12:44:54.363Z,6.75
2022-08-04T12:52:08.419Z,6.68
2022-08-04T12:59:12.966Z,7.30
2022-08-04T13:06:18.541Z,6.57
2022-08-04T13:13:25.610Z,6.28
2022-08-04T13:20:34.938Z,5.80
2022-08-04T13:27:43.166Z,5.82
2022-08-04T13:34:49.629Z,6.68
2022-08-04T13:41:59.187Z,6.15
2022-08-04T13:49:28.188Z,6.00
2022-08-04T13:56:24.815Z,6.00
2022-08-04T14:03:32.349Z,5.90
2022-08-04T14:10:35.070Z,5.32
2022-08-04T14:17:36.678Z,6.07
2022-08-04T14:24:38.300Z,5.45
2022-08-04T14:31:46.643Z,9.60
2022-08-04T14:39:00.504Z,6.55
2022-08-04T14:46:05.689Z,6.22
2022-08-04T14:53:12.348Z,5.43
2022-08-04T15:00:26.308Z,6.22
2022-08-04T15:07:27.927Z,5.85
2022-08-04T15:14:36.870Z,6.00
2022-08-04T15:21:39.513Z,7.00
2022-08-04T15:28:42.403Z,5.50
2022-08-04T15:35:44.024Z,5.85
2022-08-04T15:43:10.080Z,5.65
2022-08-04T15:50:12.839Z,5.63
2022-08-04T15:57:14.477Z,5.90
2022-08-04T16:04:21.320Z,6.00
2022-08-04T16:11:30.882Z,5.60
2022-08-04T16:18:33.587Z,6.18
2022-08-04T16:25:46.283Z,6.07
2022-08-04T16:32:48.664Z,6.15
2022-08-04T16:39:51.914Z,5.70
2022-08-04T16:47:08.308Z,6.97
2022-08-04T16:54:15.446Z,7.25
2022-08-04T17:01:32.102Z,7.18
2022-08-04T17:08:37.780Z,8.15
2022-08-04T17:15:39.413Z,7.13
2022-08-04T17:22:41.513Z,8.20
2022-08-04T17:29:45.235Z,9.32
2022-08-04T17:36:47.504Z,8.68
2022-08-04T17:44:02.825Z,8.27
2022-08-04T17:51:16.905Z,7.53
2022-08-04T17:58:21.919Z,7.68
2022-08-04T18:05:53.991Z,8.52
2022-08-04T18:12:49.387Z,12.07
2022-08-04T18:19:52.159Z,12.52
2022-08-04T18:26:57.111Z,20.43
2022-08-04T18:33:59.395Z,15.07
2022-08-04T18:41:01.234Z,10.60
2022-08-04T18:48:04.227Z,10.63
2022-08-04T18:55:55.796Z,12.93
2022-08-04T19:02:37.967Z,10.73
2022-08-04T19:09:50.934Z,10.32
2022-08-04T19:16:54.026Z,9.98
2022-08-04T19:24:27.910Z,12.00
2022-08-04T19:31:25.020Z,12.43
2022-08-04T19:38:30.208Z,12.10
2022-08-04T19:45:44.510Z,12.52
2022-08-04T19:52:51.967Z,14.88
2022-08-04T19:59:55.044Z,13.50
2022-08-04T20:06:57.593Z,15.32
2022-08-04T20:13:59.211Z,14.20
2022-08-04T20:21:04.084Z,12.75
2022-08-04T20:28:35.977Z,14.82
2022-08-04T20:35:45.969Z,12.77
2022-08-04T20:42:59.927Z,13.73
2022-08-04T20:50:01.922Z,9.32
2022-08-04T20:57:03.588Z,11.82
2022-08-04T21:04:27.295Z,12.77
2022-08-04T21:11:32.849Z,11.05
2022-08-04T21:18:34.669Z,11.45
2022-08-04T21:25:42.526Z,9.75
2022-08-04T21:32:44.628Z,11.10
2022-08-04T21:39:58.905Z,16.42
2022-08-04T21:47:16.871Z,14.57
2022-08-04T21:54:25.510Z,18.65
2022-08-04T22:01:52.309Z,18.60
2022-08-04T22:08:49.284Z,20.88
2022-08-04T22:16:03.701Z,21.52
2022-08-04T22:23:16.648Z,22.13
2022-08-04T22:30:20.850Z,23.70
2022-08-04T22:37:35.990Z,15.77
2022-08-04T22:44:44.630Z,22.63
2022-08-04T22:51:48.516Z,28.77
2022-08-04T22:58:52.453Z,28.27
2022-08-04T23:05:55.744Z,22.63
2022-08-04T23:12:57.354Z,23.65
2022-08-04T23:19:59.911Z,30.65
2022-08-04T23:27:01.724Z,36.85
2022-08-04T23:34:03.325Z,25.73
2022-08-04T23:41:15.834Z,23.60
2022-08-04T23:48:20.844Z,28.33
2022-08-04T23:55:23.454Z,22.73
